Time;durP1;ratioP1;P1;durP2;ratioP2;P2;SDS_P1;SDS_P2;PMS_P1;PMS_P2;Temp;Humidity;BMP_temperature;BMP_pressure;BME280_temperature;BME280_humidity;BME280_pressure;Samples;Min_cycle;Max_cycle;Signal;HPM_P1;HPM_P2
2021/12/17 00:04:37;;;;;;;21.05;9.13;;;7.20;99.90;;;;;;5071335;28;20032;-73
2021/12/17 00:07:09;;;;;;;14.10;8.80;;;7.20;99.90;;;;;;5073015;28;20021;-72
2021/12/17 00:09:35;;;;;;;17.00;8.40;;;7.20;99.90;;;;;;5072755;28;20033;-73
2021/12/17 00:12:01;;;;;;;15.48;8.80;;;7.20;99.90;;;;;;5072094;28;20124;-73
2021/12/17 00:14:29;;;;;;;17.70;9.73;;;7.20;99.90;;;;;;5072257;28;20071;-71
2021/12/17 00:16:57;;;;;;;21.77;8.93;;;7.20;99.90;;;;;;5072406;28;20060;-72
2021/12/17 00:49:24;;;;;;;37.30;12.52;;;7.10;99.90;;;;;;5071908;28;20029;-72
2021/12/17 00:54:31;;;;;;;41.67;11.55;;;7.20;99.90;;;;;;5071220;28;20029;-72
2021/12/17 00:57:02;;;;;;;21.60;11.15;;;7.10;99.90;;;;;;5072726;28;20036;-73
2021/12/17 00:59:28;;;;;;;18.35;12.30;;;7.10;99.90;;;;;;5072344;28;20077;-72
2021/12/17 01:01:57;;;;;;;19.48;12.82;;;7.10;99.90;;;;;;5071298;28;20507;-72
2021/12/17 01:04:23;;;;;;;26.48;12.93;;;7.10;99.90;;;;;;5072001;28;20032;-73
2021/12/17 01:06:49;;;;;;;25.60;12.32;;;7.10;99.90;;;;;;5071030;28;20086;-72
2021/12/17 01:09:18;;;;;;;18.40;12.07;;;7.10;99.90;;;;;;5071378;28;20453;-72
2021/12/17 01:11:45;;;;;;;32.15;12.63;;;7.10;99.90;;;;;;5072421;28;20045;-73
2021/12/17 01:14:11;;;;;;;16.35;11.18;;;7.10;99.90;;;;;;5074777;28;20028;-73
2021/12/17 01:16:37;;;;;;;20.55;10.65;;;7.10;99.90;;;;;;5075991;28;20033;-72
2021/12/17 01:35:21;;;;;;;29.65;12.85;;;7.10;99.90;;;;;;5075786;28;20115;-73
2021/12/17 01:43:06;;;;;;;21.98;10.52;;;7.10;99.90;;;;;;5074782;28;20792;-73
2021/12/17 01:45:36;;;;;;;28.40;12.00;;;7.10;99.90;;;;;;5075557;28;20016;-72
2021/12/17 01:48:07;;;;;;;17.65;10.65;;;7.20;99.90;;;;;;5075077;28;20072;-72
2021/12/17 01:56:29;;;;;;;23.00;9.30;;;7.20;99.90;;;;;;5075502;28;20039;-72
2021/12/17 02:01:39;;;;;;;15.80;8.52;;;7.20;99.90;;;;;;5075334;28;20489;-72
2021/12/17 02:04:06;;;;;;;16.65;9.00;;;7.20;99.90;;;;;;5074404;28;20025;-73
2021/12/17 02:06:35;;;;;;;24.58;9.27;;;7.20;99.90;;;;;;5075213;28;20036;-73
2021/12/17 02:09:02;;;;;;;16.85;8.27;;;7.10;99.90;;;;;;5075446;28;20029;-70
2021/12/17 02:12:02;;;;;;;14.48;7.55;;;7.20;99.90;;;;;;5073699;28;20036;-72
2021/12/17 02:20:28;;;;;;;20.88;8.05;;;7.20;99.90;;;;;;5074531;28;20081;-72
2021/12/17 02:23:19;;;;;;;32.88;8.52;;;7.20;99.90;;;;;;5070587;28;20072;-72
2021/12/17 02:31:19;;;;;;;51.20;8.38;;;7.10;99.90;;;;;;5074219;28;20040;-72
2021/12/17 02:33:47;;;;;;;22.40;8.18;;;7.10;99.90;;;;;;5073934;28;20511;-72
2021/12/17 02:36:17;;;;;;;21.58;7.63;;;7.10;99.90;;;;;;5074875;28;20111;-72
2021/12/17 02:38:44;;;;;;;22.33;8.75;;;7.10;99.90;;;;;;5074139;28;20027;-73
2021/12/17 02:46:38;;;;;;;37.63;9.60;;;7.10;99.90;;;;;;5073452;28;20071;-72
2021/12/17 02:49:06;;;;;;;47.65;8.80;;;7.10;99.90;;;;;;5073863;28;20763;-72
2021/12/17 02:51:31;;;;;;;31.90;8.07;;;7.10;99.90;;;;;;5074305;28;20047;-72
2021/12/17 02:53:58;;;;;;;34.97;7.88;;;7.20;99.90;;;;;;5073476;28;20025;-72
2021/12/17 02:56:24;;;;;;;53.38;8.98;;;7.20;99.90;;;;;;5073478;28;20035;-72
2021/12/17 02:58:53;;;;;;;30.38;8.88;;;7.20;99.90;;;;;;5073531;28;20717;-73
2021/12/17 03:01:18;;;;;;;56.15;7.75;;;7.10;99.90;;;;;;5073013;28;20025;-72
2021/12/17 03:03:48;;;;;;;27.08;6.70;;;7.10;99.90;;;;;;5074158;28;20499;-73
2021/12/17 03:06:14;;;;;;;23.35;6.80;;;7.10;99.90;;;;;;5073405;28;20032;-72
2021/12/17 03:08:40;;;;;;;31.27;6.78;;;7.10;99.90;;;;;;5073473;28;20095;-72
2021/12/17 03:11:06;;;;;;;20.77;6.35;;;7.10;99.90;;;;;;5073215;28;20520;-73
2021/12/17 03:13:34;;;;;;;19.60;7.38;;;7.10;99.90;;;;;;5073511;28;20469;-72
2021/12/17 03:16:11;;;;;;;63.90;8.48;;;7.10;99.90;;;;;;5073089;28;20032;-72
2021/12/17 03:18:58;;;;;;;28.58;9.00;;;7.10;99.90;;;;;;5073816;28;20024;-73
2021/12/17 03:24:08;;;;;;;36.20;9.55;;;7.20;99.90;;;;;;5073344;28;20035;-72
2021/12/17 03:26:34;;;;;;;39.20;9.15;;;7.20;99.90;;;;;;5073221;28;20052;-72
2021/12/17 03:29:08;;;;;;;40.42;10.00;;;7.20;99.90;;;;;;5072941;28;20079;-73
2021/12/17 03:31:35;;;;;;;60.35;9.48;;;7.20;99.90;;;;;;5073187;28;20087;-73
2021/12/17 03:34:19;;;;;;;78.38;11.10;;;7.20;99.90;;;;;;5072967;28;20025;-71
2021/12/17 03:36:47;;;;;;;33.50;9.75;;;7.20;99.90;;;;;;5071923;28;20025;-71
2021/12/17 03:39:14;;;;;;;34.88;9.45;;;7.20;99.90;;;;;;5072739;28;20020;-70
2021/12/17 03:41:47;;;;;;;57.67;13.07;;;7.20;99.90;;;;;;5072915;28;20103;-72
2021/12/17 03:44:12;;;;;;;47.97;10.57;;;7.20;99.90;;;;;;5072827;28;20035;-72
2021/12/17 03:46:38;;;;;;;46.40;10.30;;;7.30;99.90;;;;;;5072894;28;20044;-72
2021/12/17 03:49:04;;;;;;;50.00;10.88;;;7.30;99.90;;;;;;5072369;28;20480;-72
2021/12/17 03:51:30;;;;;;;59.90;12.48;;;7.30;99.90;;;;;;5072389;28;20038;-72
2021/12/17 03:54:00;;;;;;;60.22;12.88;;;7.30;99.90;;;;;;5073232;28;20021;-72
2021/12/17 03:56:27;;;;;;;65.23;11.87;;;7.30;99.90;;;;;;5072049;28;20373;-72
2021/12/17 03:58:54;;;;;;;59.03;10.70;;;7.40;99.90;;;;;;5072910;28;20134;-72
2021/12/17 04:01:20;;;;;;;53.80;11.02;;;7.30;99.90;;;;;;5072773;28;20043;-72
2021/12/17 04:03:46;;;;;;;77.18;12.38;;;7.30;99.90;;;;;;5072380;28;20033;-73
2021/12/17 04:06:12;;;;;;;49.17;10.38;;;7.30;99.90;;;;;;5072389;28;20388;-73
2021/12/17 04:08:40;;;;;;;49.58;9.40;;;7.30;99.90;;;;;;5072989;28;20032;-72
2021/12/17 04:11:07;;;;;;;47.90;9.25;;;7.30;99.90;;;;;;5071732;28;20046;-72
2021/12/17 04:13:38;;;;;;;54.83;11.05;;;7.30;99.90;;;;;;5072834;28;20482;-72
2021/12/17 04:16:08;;;;;;;;;;;7.30;99.90;;;;;;5073005;28;20365;-73
2021/12/17 04:18:35;;;;;;;70.80;11.90;;;7.30;99.90;;;;;;5072833;28;19908;-72
2021/12/17 04:21:03;;;;;;;45.88;9.95;;;7.30;99.90;;;;;;5072948;28;20025;-72
2021/12/17 04:23:31;;;;;;;79.70;12.80;;;7.30;99.90;;;;;;5072277;28;20025;-72
2021/12/17 04:25:57;;;;;;;52.88;11.25;;;7.30;99.90;;;;;;5071672;28;20024;-73
2021/12/17 04:28:23;;;;;;;50.13;10.88;;;7.30;99.90;;;;;;5071699;28;20103;-73
2021/12/17 04:30:49;;;;;;;49.20;11.10;;;7.30;99.90;;;;;;5071979;28;20140;-73
2021/12/17 04:33:16;;;;;;;66.28;12.77;;;7.30;99.90;;;;;;5071205;28;20469;-74
2021/12/17 04:35:41;;;;;;;52.90;11.18;;;7.30;99.90;;;;;;5072404;28;20119;-74
2021/12/17 04:38:08;;;;;;;69.40;10.90;;;7.40;99.90;;;;;;5071625;28;20115;-74
2021/12/17 04:40:36;;;;;;;83.72;12.23;;;7.40;99.90;;;;;;5072028;28;20028;-73
2021/12/17 04:43:16;;;;;;;123.03;12.18;;;7.40;99.90;;;;;;5072117;28;20099;-73
2021/12/17 04:45:49;;;;;;;43.50;10.43;;;7.30;99.90;;;;;;5071079;28;20036;-73
2021/12/17 04:59:12;;;;;;;56.78;12.00;;;7.40;99.90;;;;;;5071520;28;20500;-73
2021/12/17 05:01:38;;;;;;;56.85;12.70;;;7.30;99.90;;;;;;5071550;28;20036;-74
2021/12/17 05:04:04;;;;;;;56.60;12.48;;;7.30;99.90;;;;;;5071567;28;20027;-73
2021/12/17 05:06:30;;;;;;;55.85;14.23;;;7.30;99.90;;;;;;5071585;28;20028;-73
2021/12/17 05:09:03;;;;;;;54.28;14.15;;;7.30;99.90;;;;;;5071441;28;20358;-73
2021/12/17 05:18:14;;;;;;;57.40;15.35;;;7.40;99.90;;;;;;5071982;28;20047;-73
2021/12/17 05:19:53;;;;;;;61.72;16.25;;;7.40;99.90;;;;;;5071676;28;20438;-72
2021/12/17 05:22:19;;;;;;;69.65;18.23;;;7.30;99.90;;;;;;5071049;28;20104;-72
2021/12/17 05:24:45;;;;;;;113.00;20.08;;;7.30;99.90;;;;;;5071961;28;20032;-72
2021/12/17 05:27:11;;;;;;;101.32;21.30;;;7.40;99.90;;;;;;5072303;28;20029;-72
2021/12/17 05:29:36;;;;;;;82.82;20.55;;;7.40;99.90;;;;;;5071546;28;20021;-72
2021/12/17 05:32:03;;;;;;;77.43;21.00;;;7.40;99.90;;;;;;5071609;28;20036;-72
2021/12/17 05:34:32;;;;;;;82.55;21.70;;;7.50;99.90;;;;;;5071756;28;20028;-73
2021/12/17 05:36:57;;;;;;;75.85;23.25;;;7.40;99.90;;;;;;5071236;28;20421;-74
2021/12/17 05:39:23;;;;;;;76.78;24.02;;;7.50;99.90;;;;;;5071334;28;20071;-72
2021/12/17 05:41:49;;;;;;;64.72;23.50;;;7.50;99.90;;;;;;5071757;28;20060;-73
2021/12/17 05:44:16;;;;;;;57.67;22.20;;;7.50;99.90;;;;;;5071368;28;20082;-72
2021/12/17 05:46:49;;;;;;;59.58;23.83;;;7.50;99.90;;;;;;5072154;28;20408;-73
2021/12/17 05:49:18;;;;;;;58.88;24.65;;;7.50;99.90;;;;;;5071306;28;20028;-73
2021/12/17 05:51:44;;;;;;;63.67;24.42;;;7.60;99.90;;;;;;5072331;28;20032;-72
2021/12/17 05:54:10;;;;;;;82.15;26.42;;;7.60;99.90;;;;;;5071351;28;20430;-74
2021/12/17 05:56:36;;;;;;;70.57;26.15;;;7.60;99.90;;;;;;5071062;28;20472;-72
2021/12/17 05:59:02;;;;;;;66.47;23.33;;;7.70;99.90;;;;;;5071924;28;20033;-72
2021/12/17 06:01:27;;;;;;;56.03;21.77;;;7.70;99.90;;;;;;5074295;28;20028;-74
2021/12/17 06:03:53;;;;;;;53.85;21.10;;;7.60;99.90;;;;;;5074775;28;20145;-74
2021/12/17 06:06:29;;;;;;;54.92;19.42;;;7.70;99.90;;;;;;5075085;28;20021;-73
2021/12/17 06:08:55;;;;;;;51.05;18.13;;;7.60;99.90;;;;;;5075110;28;20055;-74
2021/12/17 06:11:21;;;;;;;64.57;20.80;;;7.60;99.90;;;;;;5076561;28;20432;-74
2021/12/17 06:13:46;;;;;;;59.97;17.98;;;7.60;99.90;;;;;;5090668;28;20024;-73
2021/12/17 06:16:12;;;;;;;60.45;18.30;;;7.60;99.90;;;;;;5104915;28;20103;-74
2021/12/17 06:18:37;;;;;;;54.58;17.75;;;7.60;99.90;;;;;;5095741;28;20028;-73
2021/12/17 06:21:03;;;;;;;59.63;17.77;;;7.60;99.90;;;;;;5112798;28;20016;-72
2021/12/17 06:23:28;;;;;;;50.00;15.70;;;7.60;99.90;;;;;;5099084;28;20054;-72
2021/12/17 06:25:54;;;;;;;45.67;15.38;;;7.60;99.90;;;;;;5095081;28;20436;-72
2021/12/17 06:28:22;;;;;;;47.03;16.58;;;7.60;99.90;;;;;;5083542;28;20498;-73
2021/12/17 06:30:48;;;;;;;35.58;13.13;;;7.60;99.90;;;;;;5094027;28;20037;-72
2021/12/17 06:33:14;;;;;;;34.33;12.20;;;7.60;99.90;;;;;;5084778;28;20539;-72
2021/12/17 06:35:40;;;;;;;32.55;13.35;;;7.60;99.90;;;;;;5079566;28;20047;-73
2021/12/17 06:38:06;;;;;;;36.85;12.63;;;7.60;99.90;;;;;;5088211;28;20051;-72
2021/12/17 06:40:31;;;;;;;29.15;11.20;;;7.60;99.90;;;;;;5086247;28;20447;-72
2021/12/17 06:42:57;;;;;;;34.42;12.32;;;7.60;99.90;;;;;;5093354;28;20028;-72
2021/12/17 06:45:39;;;;;;;29.25;11.18;;;7.60;99.90;;;;;;5091676;28;20031;-72
2021/12/17 06:48:05;;;;;;;23.70;10.27;;;7.60;99.90;;;;;;5092672;28;20509;-73
2021/12/17 06:56:59;;;;;;;23.67;10.27;;;7.70;99.90;;;;;;5089575;28;20441;-73
2021/12/17 07:05:50;;;;;;;24.90;10.40;;;7.60;99.90;;;;;;5092804;28;20380;-73
2021/12/17 07:07:54;;;;;;;22.45;9.38;;;7.60;99.90;;;;;;5093323;28;20065;-73
2021/12/17 07:18:02;;;;;;;29.30;11.45;;;7.70;99.90;;;;;;5093488;28;20112;-73
2021/12/17 07:21:00;;;;;;;22.52;10.88;;;7.70;99.90;;;;;;5091630;28;20032;-74
2021/12/17 07:23:49;;;;;;;19.27;10.02;;;7.60;99.90;;;;;;5091365;28;20495;-69
2021/12/17 07:30:32;;;;;;;26.65;10.82;;;7.60;99.90;;;;;;5093198;28;20047;-74
2021/12/17 07:32:19;;;;;;;25.98;10.98;;;7.60;99.90;;;;;;5089861;28;20046;-72
2021/12/17 07:39:39;;;;;;;28.63;12.73;;;7.60;99.90;;;;;;5090866;28;20020;-73
2021/12/17 07:42:08;;;;;;;30.85;12.48;;;7.70;99.90;;;;;;5085227;28;20027;-73
2021/12/17 07:44:35;;;;;;;29.25;12.65;;;7.60;99.90;;;;;;5080113;28;20478;-74
2021/12/17 07:47:00;;;;;;;29.83;11.30;;;7.70;99.90;;;;;;5071272;28;20488;-71
2021/12/17 07:49:26;;;;;;;31.27;12.15;;;7.70;99.90;;;;;;5085948;28;20023;-71
2021/12/17 07:51:51;;;;;;;25.95;11.45;;;7.70;99.90;;;;;;5091771;28;20063;-71
2021/12/17 07:54:17;;;;;;;28.58;12.07;;;7.60;99.90;;;;;;5092106;28;20027;-70
2021/12/17 07:56:43;;;;;;;28.58;11.88;;;7.60;99.90;;;;;;5092499;28;20027;-72
2021/12/17 07:59:10;;;;;;;33.35;11.38;;;7.70;99.90;;;;;;5091081;28;20468;-71
2021/12/17 08:01:37;;;;;;;29.10;12.25;;;7.60;99.90;;;;;;5091335;28;20031;-70
2021/12/17 08:04:04;;;;;;;30.48;12.80;;;7.70;99.90;;;;;;5077164;28;20024;-72
2021/12/17 08:06:30;;;;;;;33.42;12.55;;;7.70;99.90;;;;;;5084905;28;20103;-73
2021/12/17 08:08:56;;;;;;;31.92;12.50;;;7.70;99.90;;;;;;5081604;28;20077;-73
2021/12/17 08:11:22;;;;;;;28.17;11.45;;;7.70;99.90;;;;;;5074310;28;20036;-74
2021/12/17 08:13:50;;;;;;;28.38;11.45;;;7.70;99.90;;;;;;5079930;28;20028;-73
2021/12/17 08:16:29;;;;;;;22.10;10.85;;;7.70;99.90;;;;;;5072777;28;20131;-73
2021/12/17 08:32:01;;;;;;;21.40;10.00;;;7.80;99.90;;;;;;5078067;28;20032;-75
2021/12/17 08:34:28;;;;;;;24.42;10.82;;;7.80;99.90;;;;;;5083453;28;22066;-75
2021/12/17 08:36:53;;;;;;;24.38;10.35;;;7.80;99.90;;;;;;5079777;28;20035;-75
2021/12/17 08:39:21;;;;;;;17.40;8.13;;;7.80;99.90;;;;;;5080237;28;20495;-73
2021/12/17 08:41:52;;;;;;;17.17;9.27;;;8.50;99.90;;;;;;5080220;28;20085;-74
2021/12/17 08:44:18;;;;;;;16.60;9.25;;;7.90;99.90;;;;;;5078663;28;20111;-75
2021/12/17 08:46:44;;;;;;;20.02;10.50;;;8.00;99.90;;;;;;5081263;28;20130;-75
2021/12/17 08:49:10;;;;;;;23.00;10.60;;;7.90;99.90;;;;;;5079842;28;20070;-72
2021/12/17 08:51:37;;;;;;;25.75;10.70;;;8.00;99.90;;;;;;5076006;28;20538;-71
2021/12/17 08:54:03;;;;;;;18.63;8.57;;;8.00;99.90;;;;;;5079871;28;20031;-74
2021/12/17 08:56:35;;;;;;;19.50;9.32;;;8.10;99.90;;;;;;5072580;28;20029;-74
2021/12/17 08:59:06;;;;;;;22.17;9.10;;;8.10;99.90;;;;;;5072231;28;20510;-75
2021/12/17 09:01:33;;;;;;;18.40;7.97;;;8.10;99.90;;;;;;5071612;28;20032;-75
2021/12/17 09:04:00;;;;;;;16.20;8.65;;;8.10;99.90;;;;;;5071104;28;20021;-76
2021/12/17 09:06:28;;;;;;;18.73;9.10;;;8.10;99.90;;;;;;5089350;28;20032;-75
2021/12/17 09:08:54;;;;;;;17.05;9.07;;;8.10;99.90;;;;;;5092000;28;20024;-76
2021/12/17 09:11:22;;;;;;;17.75;9.45;;;8.10;99.90;;;;;;5092022;28;20050;-76
2021/12/17 09:13:48;;;;;;;16.65;9.18;;;8.20;99.90;;;;;;5092492;28;20107;-77
2021/12/17 09:16:14;;;;;;;12.93;8.02;;;8.20;99.90;;;;;;5092184;28;20078;-74
2021/12/17 09:18:40;;;;;;;13.65;8.73;;;8.20;99.90;;;;;;5092009;28;20031;-76
2021/12/17 09:21:06;;;;;;;20.52;10.27;;;9.40;99.90;;;;;;5091534;28;20132;-75
2021/12/17 09:23:32;;;;;;;18.58;8.98;;;8.30;99.90;;;;;;5091431;28;20440;-74
2021/12/17 09:26:00;;;;;;;17.95;8.18;;;8.30;99.90;;;;;;5091499;28;20491;-75
2021/12/17 09:28:26;;;;;;;14.18;8.40;;;8.30;99.90;;;;;;5091728;28;20020;-75
2021/12/17 09:30:51;;;;;;;16.90;8.57;;;8.50;99.90;;;;;;5086608;28;20028;-75
2021/12/17 09:33:17;;;;;;;11.48;7.43;;;8.40;99.90;;;;;;5084879;28;20073;-74
2021/12/17 09:35:43;;;;;;;12.07;6.95;;;8.40;99.90;;;;;;5090100;28;20016;-74
2021/12/17 09:38:09;;;;;;;16.60;7.93;;;8.40;99.90;;;;;;5094670;28;20021;-76
2021/12/17 09:40:35;;;;;;;13.73;7.97;;;8.90;99.90;;;;;;5085219;28;20078;-75
2021/12/17 09:43:00;;;;;;;15.00;7.70;;;8.40;99.90;;;;;;5087167;28;20056;-75
2021/12/17 09:45:26;;;;;;;14.73;7.35;;;8.40;99.90;;;;;;5084120;28;20024;-75
2021/12/17 09:47:52;;;;;;;11.25;7.38;;;9.00;99.90;;;;;;5092346;28;20101;-73
2021/12/17 09:50:20;;;;;;;11.40;7.15;;;8.40;99.90;;;;;;5081344;28;20399;-73
2021/12/17 09:52:46;;;;;;;12.93;7.35;;;8.50;99.90;;;;;;5079968;28;20511;-75
2021/12/17 09:55:12;;;;;;;10.25;6.80;;;8.40;99.90;;;;;;5074006;28;20099;-74
2021/12/17 09:57:38;;;;;;;12.02;6.90;;;8.50;99.90;;;;;;5093432;28;20444;-75
2021/12/17 10:00:15;;;;;;;12.63;7.30;;;8.50;99.90;;;;;;5094559;28;20028;-75
2021/12/17 10:02:44;;;;;;;11.75;6.53;;;8.50;99.90;;;;;;5088808;28;20021;-75
2021/12/17 10:05:25;;;;;;;10.45;6.95;;;8.50;99.90;;;;;;5089492;28;20111;-75
2021/12/17 10:07:57;;;;;;;13.80;7.47;;;8.50;99.90;;;;;;5088609;28;20020;-75
2021/12/17 10:10:39;;;;;;;9.82;6.05;;;8.50;99.90;;;;;;5093673;28;20751;-75
2021/12/17 10:13:11;;;;;;;10.05;5.50;;;8.50;99.90;;;;;;5092918;28;20097;-74
2021/12/17 10:15:39;;;;;;;9.98;6.35;;;8.50;99.90;;;;;;5093592;28;20028;-74
2021/12/17 10:18:05;;;;;;;8.52;5.72;;;8.50;99.90;;;;;;5095725;28;20028;-74
2021/12/17 10:20:34;;;;;;;7.60;5.45;;;8.60;99.90;;;;;;5094947;28;20061;-75
2021/12/17 10:23:08;;;;;;;8.00;5.35;;;8.60;99.90;;;;;;5096823;28;20020;-72
2021/12/17 10:25:36;;;;;;;7.85;5.43;;;8.60;99.90;;;;;;5094906;28;20073;-75
2021/12/17 10:28:07;;;;;;;8.50;6.10;;;8.60;99.90;;;;;;5090539;28;20048;-75
2021/12/17 10:30:35;;;;;;;7.25;6.50;;;8.60;99.90;;;;;;5086086;28;20522;-74
2021/12/17 10:33:05;;;;;;;8.82;5.05;;;8.50;99.90;;;;;;5080123;28;20109;-74
2021/12/17 10:35:33;;;;;;;7.87;5.43;;;8.50;99.90;;;;;;5086271;28;20016;-74
2021/12/17 10:38:05;;;;;;;7.78;5.65;;;8.50;99.90;;;;;;5093074;28;20488;-75
2021/12/17 10:41:05;;;;;;;7.75;5.90;;;8.50;99.90;;;;;;5090627;28;20383;-75
2021/12/17 10:43:36;;;;;;;9.50;5.45;;;8.50;99.90;;;;;;5086943;28;20028;-73
2021/12/17 10:51:14;;;;;;;7.28;4.45;;;8.50;99.90;;;;;;5085898;28;20082;-75
2021/12/17 10:53:53;;;;;;;6.15;4.15;;;8.50;99.90;;;;;;5085117;28;20389;-75
2021/12/17 10:56:21;;;;;;;7.40;4.57;;;8.50;99.90;;;;;;5094296;28;20111;-74
2021/12/17 10:59:04;;;;;;;6.85;5.43;;;8.50;99.90;;;;;;5102439;28;20375;-74
2021/12/17 11:01:36;;;;;;;7.10;5.20;;;8.50;99.90;;;;;;5100807;28;20027;-74
2021/12/17 11:04:11;;;;;;;8.10;4.90;;;8.50;99.90;;;;;;5091720;28;20086;-74
2021/12/17 11:06:42;;;;;;;5.07;4.13;;;8.50;99.90;;;;;;5081969;28;20032;-74
2021/12/17 11:09:08;;;;;;;4.38;3.72;;;8.50;99.90;;;;;;5090735;28;20028;-74
2021/12/17 11:11:40;;;;;;;6.53;4.75;;;8.40;99.90;;;;;;5087605;28;20036;-73
2021/12/17 11:14:06;;;;;;;7.43;4.35;;;8.50;99.90;;;;;;5097100;28;20016;-76
2021/12/17 11:16:34;;;;;;;4.25;3.67;;;8.40;99.90;;;;;;5089094;28;20025;-75
2021/12/17 11:19:00;;;;;;;5.15;3.25;;;8.40;99.90;;;;;;5087725;28;20021;-74
2021/12/17 11:21:25;;;;;;;5.53;4.28;;;8.50;99.90;;;;;;5091752;28;20107;-75
2021/12/17 11:23:51;;;;;;;9.13;4.57;;;8.50;99.90;;;;;;5088646;28;20115;-75
2021/12/17 11:26:17;;;;;;;6.63;4.05;;;8.50;99.90;;;;;;5082985;28;20376;-74
2021/12/17 11:28:45;;;;;;;7.25;4.50;;;8.60;99.90;;;;;;5082697;28;20514;-75
2021/12/17 11:31:12;;;;;;;4.38;3.47;;;8.60;99.90;;;;;;5081110;28;20114;-74
2021/12/17 11:33:38;;;;;;;4.00;3.60;;;8.60;99.90;;;;;;5088371;28;20077;-74
2021/12/17 11:36:04;;;;;;;6.15;4.03;;;8.60;99.90;;;;;;5094141;28;20422;-75
2021/12/17 11:38:52;;;;;;;3.67;3.00;;;8.50;99.90;;;;;;5077874;28;20024;-74
2021/12/17 11:41:35;;;;;;;5.35;3.25;;;8.50;99.90;;;;;;5088747;28;20032;-75
2021/12/17 11:44:03;;;;;;;4.75;3.10;;;8.60;99.90;;;;;;5091277;28;20044;-74
2021/12/17 11:46:31;;;;;;;5.13;3.20;;;8.70;99.90;;;;;;5092292;28;20123;-76
2021/12/17 11:49:15;;;;;;;5.50;3.20;;;8.70;99.90;;;;;;5076727;28;20073;-75
2021/12/17 11:51:40;;;;;;;4.30;3.50;;;8.70;99.90;;;;;;5093536;28;20036;-77
2021/12/17 11:54:10;;;;;;;4.90;3.75;;;8.70;99.90;;;;;;5091453;28;20696;-76
2021/12/17 11:56:48;;;;;;;4.65;3.80;;;8.70;99.90;;;;;;5072603;28;20039;-77
2021/12/17 11:59:27;;;;;;;4.85;3.67;;;8.70;99.90;;;;;;5072405;28;20017;-77
2021/12/17 12:02:05;;;;;;;5.53;4.03;;;8.70;99.90;;;;;;5073140;28;20173;-75
2021/12/17 12:04:33;;;;;;;5.53;4.03;;;8.70;99.90;;;;;;5072878;28;20471;-76
2021/12/17 12:07:19;;;;;;;4.93;4.05;;;8.70;99.90;;;;;;5073536;28;20028;-75
2021/12/17 12:09:54;;;;;;;5.25;4.07;;;8.70;99.90;;;;;;5074458;28;20060;-76
2021/12/17 12:12:20;;;;;;;5.82;4.43;;;8.70;99.90;;;;;;5073495;28;20040;-74
2021/12/17 12:14:45;;;;;;;5.70;4.47;;;8.70;99.90;;;;;;5091078;28;20778;-76
2021/12/17 12:17:11;;;;;;;6.60;4.47;;;8.80;99.90;;;;;;5091808;28;20028;-75
2021/12/17 12:19:50;;;;;;;6.85;4.72;;;8.70;99.90;;;;;;5083191;28;20019;-75
2021/12/17 12:22:29;;;;;;;6.43;4.57;;;8.70;99.90;;;;;;5072078;28;20016;-75
2021/12/17 12:25:27;;;;;;;6.45;4.38;;;8.70;99.90;;;;;;5087256;28;20019;-76
2021/12/17 12:27:52;;;;;;;5.07;4.18;;;8.70;99.90;;;;;;5092367;28;20018;-76
2021/12/17 12:30:36;;;;;;;5.95;4.20;;;8.60;99.90;;;;;;5091497;28;20016;-74
2021/12/17 12:33:09;;;;;;;5.68;4.38;;;8.70;99.90;;;;;;5092536;28;20085;-74
2021/12/17 12:35:35;;;;;;;5.47;4.03;;;8.70;99.90;;;;;;5091280;28;20079;-74
2021/12/17 12:38:20;;;;;;;6.10;5.20;;;8.70;99.90;;;;;;5087153;28;20028;-74
2021/12/17 12:40:56;;;;;;;6.68;4.80;;;8.70;99.90;;;;;;5080537;28;20043;-76
2021/12/17 12:43:28;;;;;;;6.97;5.15;;;8.70;99.90;;;;;;5092100;28;20020;-73
2021/12/17 12:45:53;;;;;;;6.38;4.80;;;8.70;99.90;;;;;;5089345;28;20031;-75
2021/12/17 12:48:33;;;;;;;5.45;4.32;;;8.60;99.90;;;;;;5090497;28;20044;-74
2021/12/17 12:51:20;;;;;;;6.40;4.80;;;8.60;99.90;;;;;;5090576;28;20476;-75
2021/12/17 12:54:06;;;;;;;7.03;4.78;;;8.60;99.90;;;;;;5071529;28;20275;-75
2021/12/17 12:56:32;;;;;;;7.95;5.05;;;8.60;99.90;;;;;;5070398;28;20078;-74
2021/12/17 12:59:00;;;;;;;7.75;4.55;;;8.60;99.90;;;;;;5070950;28;20029;-73
2021/12/17 13:01:26;;;;;;;5.40;4.22;;;8.60;99.90;;;;;;5071834;28;20456;-74
2021/12/17 13:03:52;;;;;;;5.75;4.47;;;8.60;99.90;;;;;;5072244;28;20028;-76
2021/12/17 13:06:19;;;;;;;7.15;5.13;;;8.70;99.90;;;;;;5071672;28;20056;-74
2021/12/17 13:08:59;;;;;;;7.30;4.97;;;8.70;99.90;;;;;;5073390;28;20022;-75
2021/12/17 13:11:26;;;;;;;9.90;5.10;;;8.70;99.90;;;;;;5076658;28;20484;-74
2021/12/17 13:13:53;;;;;;;6.65;5.55;;;8.70;99.90;;;;;;5076292;28;20024;-74
2021/12/17 13:24:16;;;;;;;7.82;5.68;;;8.60;99.90;;;;;;5083435;28;20024;-76
2021/12/17 13:26:47;;;;;;;6.80;5.38;;;8.50;99.90;;;;;;5086605;28;20133;-75
2021/12/17 13:29:35;;;;;;;5.78;4.90;;;8.60;99.90;;;;;;5094910;28;20024;-75
2021/12/17 13:32:02;;;;;;;7.75;5.78;;;8.60;99.90;;;;;;5094771;28;20036;-75
2021/12/17 13:34:44;;;;;;;7.38;5.93;;;8.60;99.90;;;;;;5095210;28;20028;-75
2021/12/17 13:37:15;;;;;;;9.60;5.45;;;8.60;99.90;;;;;;5095829;28;20553;-76
2021/12/17 13:39:59;;;;;;;7.78;5.25;;;8.60;99.90;;;;;;5096423;28;20028;-76
2021/12/17 13:42:30;;;;;;;7.40;5.47;;;8.50;99.90;;;;;;5095426;28;20020;-76
2021/12/17 13:45:05;;;;;;;8.10;5.65;;;8.50;99.90;;;;;;5096321;28;20028;-76
2021/12/17 13:47:40;;;;;;;7.28;5.22;;;8.50;99.90;;;;;;5095420;28;20051;-76
2021/12/17 13:50:19;;;;;;;9.57;6.30;;;8.50;99.90;;;;;;5097121;28;20147;-76
2021/12/17 13:52:49;;;;;;;9.07;5.85;;;8.50;99.90;;;;;;5097803;28;20031;-76
2021/12/17 13:55:18;;;;;;;7.47;5.82;;;8.50;99.90;;;;;;5096346;28;20480;-76
2021/12/17 13:57:45;;;;;;;5.63;5.03;;;8.50;99.90;;;;;;5096190;28;20625;-76
2021/12/17 14:00:16;;;;;;;9.20;5.43;;;8.50;99.90;;;;;;5095621;28;20375;-75
2021/12/17 14:02:44;;;;;;;6.07;4.75;;;8.50;99.90;;;;;;5096271;28;20049;-76
2021/12/17 14:05:11;;;;;;;5.53;4.57;;;8.50;99.90;;;;;;5098271;28;20024;-74
2021/12/17 14:07:38;;;;;;;4.85;4.10;;;8.50;99.90;;;;;;5097167;28;20157;-76
2021/12/17 14:10:19;;;;;;;6.53;4.35;;;8.50;99.90;;;;;;5095979;28;20111;-76
2021/12/17 14:12:45;;;;;;;;;;;8.50;99.90;;;;;;5095722;28;20063;-75
2021/12/17 14:15:18;;;;;;;4.18;3.78;;;8.50;99.90;;;;;;5095509;28;19943;-75
2021/12/17 14:17:46;;;;;;;5.03;4.00;;;8.50;99.90;;;;;;5096193;28;20056;-75
2021/12/17 14:20:22;;;;;;;4.07;3.78;;;8.50;99.90;;;;;;5095159;28;20484;-75
2021/12/17 14:22:50;;;;;;;4.95;4.32;;;8.50;99.90;;;;;;5095419;28;20043;-76
2021/12/17 14:25:29;;;;;;;4.60;3.92;;;8.50;99.90;;;;;;5095229;28;20491;-75
2021/12/17 14:27:57;;;;;;;4.65;4.13;;;8.50;99.90;;;;;;5095224;28;20365;-76
2021/12/17 14:30:33;;;;;;;4.57;4.00;;;8.50;99.90;;;;;;5094500;28;20115;-76
2021/12/17 14:33:04;;;;;;;5.10;4.07;;;8.60;99.90;;;;;;5095456;28;20514;-76
2021/12/17 14:35:58;;;;;;;5.05;4.13;;;8.60;99.90;;;;;;5095081;28;20024;-76
2021/12/17 14:38:52;;;;;;;5.05;4.25;;;8.60;99.90;;;;;;5094320;28;20024;-75
2021/12/17 14:41:32;;;;;;;4.22;3.83;;;8.60;99.90;;;;;;5094685;28;20430;-75
2021/12/17 14:44:04;;;;;;;4.80;4.20;;;8.60;99.90;;;;;;5094912;28;20031;-77
2021/12/17 14:46:51;;;;;;;4.93;4.10;;;8.60;99.90;;;;;;5094975;28;20061;-75
2021/12/17 15:02:43;;;;;;;6.45;4.50;;;8.60;99.90;;;;;;5094636;28;20028;-76
2021/12/17 15:05:10;;;;;;;4.97;3.90;;;8.60;99.90;;;;;;5094223;28;20420;-77
2021/12/17 15:07:36;;;;;;;5.82;4.38;;;8.60;99.90;;;;;;5094396;28;20040;-75
2021/12/17 15:10:03;;;;;;;3.75;3.45;;;8.60;99.90;;;;;;5094543;28;20065;-76
2021/12/17 15:15:00;;;;;;;3.88;3.47;;;8.60;99.90;;;;;;5096093;28;20020;-77
2021/12/17 15:17:26;;;;;;;4.25;3.67;;;8.60;99.90;;;;;;5094183;28;20036;-74
2021/12/17 15:19:52;;;;;;;4.50;3.58;;;8.60;99.90;;;;;;5081660;28;20466;-77
2021/12/17 15:22:17;;;;;;;3.92;3.53;;;8.60;99.90;;;;;;5079193;28;20077;-77
2021/12/17 15:24:43;;;;;;;4.25;3.85;;;8.60;99.90;;;;;;5073680;28;20021;-76
2021/12/17 15:27:10;;;;;;;5.50;4.10;;;8.60;99.90;;;;;;5072367;28;20016;-77
2021/12/17 15:29:35;;;;;;;6.40;4.35;;;8.60;99.90;;;;;;5073554;28;20346;-77
2021/12/17 15:32:01;;;;;;;4.50;4.10;;;8.60;99.90;;;;;;5075236;28;20153;-76
2021/12/17 15:34:27;;;;;;;3.45;3.15;;;8.50;99.90;;;;;;5078335;28;20460;-78
2021/12/17 15:36:53;;;;;;;5.78;3.17;;;8.60;99.90;;;;;;5085146;28;20024;-75
2021/12/17 15:39:19;;;;;;;4.40;3.70;;;8.60;99.90;;;;;;5094152;28;20024;-75
2021/12/17 15:41:45;;;;;;;3.53;3.22;;;8.50;99.90;;;;;;5090845;28;20026;-77
2021/12/17 15:44:11;;;;;;;5.68;4.35;;;8.60;99.90;;;;;;5092317;28;20046;-77
2021/12/17 15:46:38;;;;;;;4.40;4.00;;;8.50;99.90;;;;;;5092259;28;20364;-76
2021/12/17 15:49:04;;;;;;;4.88;3.97;;;8.50;99.90;;;;;;5088624;28;20077;-75
2021/12/17 15:51:30;;;;;;;4.03;3.72;;;8.60;99.90;;;;;;5090344;28;20065;-78
2021/12/17 15:53:56;;;;;;;5.43;3.78;;;8.60;99.90;;;;;;5090345;28;20020;-76